Time;durP1;ratioP1;P1;durP2;ratioP2;P2;SDS_P1;SDS_P2;PMS_P1;PMS_P2;Temp;Humidity;BMP_temperature;BMP_pressure;BME280_temperature;BME280_humidity;BME280_pressure;Samples;Min_cycle;Max_cycle;Signal;HPM_P1;HPM_P2
2023/08/24 00:00:20;;;;;;;11.40;7.33;;;;;;;;;;761767;184;914103;-60
2023/08/24 00:02:46;;;;;;;8.90;6.90;;;;;;;;;;768989;180;920069;-56
2023/08/24 00:05:11;;;;;;;12.60;7.97;;;;;;;;;;774043;180;916704;-60
2023/08/24 00:07:37;;;;;;;12.37;9.20;;;;;;;;;;780235;180;918818;-61
2023/08/24 00:10:04;;;;;;;10.07;7.90;;;;;;;;;;769875;180;920444;-60
2023/08/24 00:12:29;;;;;;;21.53;9.13;;;;;;;;;;761939;184;1021808;-60
2023/08/24 00:14:55;;;;;;;16.03;8.47;;;;;;;;;;779516;181;920177;-61
2023/08/24 00:17:22;;;;;;;11.70;8.95;;;;;;;;;;775409;180;918428;-61
2023/08/24 00:19:47;;;;;;;12.53;8.77;;;;;;;;;;774660;180;919222;-54
2023/08/24 00:22:12;;;;;;;12.23;9.70;;;;;;;;;;778903;179;913591;-61
2023/08/24 00:24:38;;;;;;;13.77;9.30;;;;;;;;;;774749;180;919225;-55
2023/08/24 00:27:04;;;;;;;13.23;9.70;;;;;;;;;;771616;179;920893;-55
2023/08/24 00:29:30;;;;;;;15.57;9.93;;;;;;;;;;769271;180;933529;-60
2023/08/24 00:31:57;;;;;;;13.17;10.20;;;;;;;;;;781012;180;818881;-61
2023/08/24 00:34:22;;;;;;;10.40;8.27;;;;;;;;;;775263;177;914636;-56
2023/08/24 00:36:47;;;;;;;17.08;9.77;;;;;;;;;;773814;181;918980;-56
2023/08/24 00:39:13;;;;;;;9.40;7.97;;;;;;;;;;780242;180;919931;-56
2023/08/24 00:41:41;;;;;;;11.47;8.40;;;;;;;;;;774919;178;815901;-59
2023/08/24 00:44:07;;;;;;;12.90;9.20;;;;;;;;;;769978;181;919090;-60
2023/08/24 00:46:31;;;;;;;14.53;9.97;;;;;;;;;;780652;178;816663;-56
2023/08/24 00:48:57;;;;;;;17.87;11.00;;;;;;;;;;771970;180;918016;-56
2023/08/24 00:51:23;;;;;;;13.53;9.33;;;;;;;;;;773423;181;917618;-56
2023/08/24 00:53:49;;;;;;;15.43;10.23;;;;;;;;;;769195;178;931656;-61
2023/08/24 00:56:14;;;;;;;16.80;10.70;;;;;;;;;;776973;181;919340;-56
2023/08/24 00:58:40;;;;;;;17.53;9.40;;;;;;;;;;774440;180;919474;-56
2023/08/24 01:01:06;;;;;;;12.00;8.70;;;;;;;;;;771718;178;920382;-60
2023/08/24 01:03:32;;;;;;;11.50;8.47;;;;;;;;;;777029;181;920969;-62
2023/08/24 01:05:58;;;;;;;11.17;8.90;;;;;;;;;;773247;180;921620;-61
2023/08/24 01:08:23;;;;;;;11.47;9.70;;;;;;;;;;774512;181;920175;-62
2023/08/24 01:10:52;;;;;;;17.73;13.07;;;;;;;;;;779502;179;917396;-61
2023/08/24 01:13:18;;;;;;;26.60;13.47;;;;;;;;;;772540;179;919458;-57
2023/08/24 01:15:45;;;;;;;21.40;14.33;;;;;;;;;;776346;180;920345;-57
2023/08/24 01:18:13;;;;;;;20.40;14.00;;;;;;;;;;776468;179;914217;-64
2023/08/24 01:20:37;;;;;;;22.35;14.98;;;;;;;;;;778921;181;919703;-57
2023/08/24 01:23:09;;;;;;;18.57;12.00;;;;;;;;;;774018;180;919367;-63
2023/08/24 01:25:35;;;;;;;16.20;12.40;;;;;;;;;;774127;177;918156;-58
2023/08/24 01:28:01;;;;;;;16.83;13.33;;;;;;;;;;779189;180;913160;-58
2023/08/24 01:30:27;;;;;;;19.30;13.67;;;;;;;;;;774535;181;917853;-57
2023/08/24 01:32:53;;;;;;;17.73;12.77;;;;;;;;;;775332;177;913874;-58
2023/08/24 01:35:18;;;;;;;16.90;12.60;;;;;;;;;;775673;179;914911;-62
2023/08/24 01:37:44;;;;;;;14.50;12.77;;;;;;;;;;768111;181;916528;-58
2023/08/24 01:40:26;;;;;;;15.53;13.70;;;;;;;;;;763821;182;917682;-62
2023/08/24 01:42:52;;;;;;;20.17;16.57;;;;;;;;;;775811;180;905285;-58
2023/08/24 01:45:18;;;;;;;22.53;14.90;;;;;;;;;;770481;180;920103;-58
2023/08/24 01:47:43;;;;;;;25.13;16.80;;;;;;;;;;777333;180;919518;-58
2023/08/24 01:50:09;;;;;;;21.27;17.83;;;;;;;;;;775086;180;817348;-58
2023/08/24 01:52:35;;;;;;;25.20;16.23;;;;;;;;;;774917;180;920457;-58
2023/08/24 01:55:01;;;;;;;23.27;16.40;;;;;;;;;;779171;180;919773;-57
2023/08/24 01:57:27;;;;;;;29.77;18.20;;;;;;;;;;768254;180;919806;-62
2023/08/24 01:59:53;;;;;;;30.23;18.92;;;;;;;;;;765344;181;911755;-58
2023/08/24 02:02:18;;;;;;;23.57;16.90;;;;;;;;;;772572;181;921721;-63
2023/08/24 02:04:44;;;;;;;24.60;19.07;;;;;;;;;;770710;178;923906;-63
2023/08/24 02:07:10;;;;;;;27.90;19.40;;;;;;;;;;761880;182;917343;-63
2023/08/24 02:09:36;;;;;;;27.07;20.57;;;;;;;;;;773239;181;922684;-63
2023/08/24 02:12:02;;;;;;;28.43;21.33;;;;;;;;;;779613;178;944869;-58
2023/08/24 02:14:28;;;;;;;28.67;22.00;;;;;;;;;;775042;180;854084;-64
2023/08/24 02:16:54;;;;;;;26.00;23.10;;;;;;;;;;774487;180;816436;-64
2023/08/24 02:19:19;;;;;;;30.10;21.47;;;;;;;;;;777196;181;939481;-58
2023/08/24 02:21:45;;;;;;;32.77;22.80;;;;;;;;;;776375;179;917638;-58
2023/08/24 02:24:11;;;;;;;33.22;21.92;;;;;;;;;;773953;181;919791;-64
2023/08/24 02:26:37;;;;;;;23.75;19.40;;;;;;;;;;779242;179;818150;-59
2023/08/24 02:29:03;;;;;;;25.00;21.17;;;;;;;;;;773042;180;918742;-58
2023/08/24 02:31:29;;;;;;;30.23;21.47;;;;;;;;;;769623;179;919110;-58
2023/08/24 02:33:55;;;;;;;27.80;22.27;;;;;;;;;;774733;179;919289;-64
2023/08/24 02:36:21;;;;;;;29.90;23.00;;;;;;;;;;780017;180;919315;-64
2023/08/24 02:38:47;;;;;;;30.00;22.83;;;;;;;;;;768882;181;919304;-59
2023/08/24 02:41:14;;;;;;;32.43;21.80;;;;;;;;;;773625;178;920947;-58
2023/08/24 02:43:38;;;;;;;29.97;22.07;;;;;;;;;;779314;178;917888;-65
2023/08/24 02:46:04;;;;;;;26.00;22.90;;;;;;;;;;774624;180;921632;-63
2023/08/24 02:48:30;;;;;;;25.93;20.73;;;;;;;;;;775802;180;919389;-63
2023/08/24 02:50:56;;;;;;;25.03;20.93;;;;;;;;;;777429;179;922355;-59
2023/08/24 02:53:22;;;;;;;31.40;20.53;;;;;;;;;;774895;177;919593;-59
2023/08/24 02:55:47;;;;;;;23.67;17.73;;;;;;;;;;765552;177;918830;-59
2023/08/24 02:58:13;;;;;;;22.23;18.20;;;;;;;;;;763236;182;822085;-59
2023/08/24 03:00:39;;;;;;;25.80;20.73;;;;;;;;;;780279;180;823064;-64
2023/08/24 03:03:06;;;;;;;25.43;18.27;;;;;;;;;;774832;180;919338;-59
2023/08/24 03:05:32;;;;;;;19.00;17.03;;;;;;;;;;770969;179;916853;-64
2023/08/24 03:07:57;;;;;;;18.13;16.23;;;;;;;;;;776139;180;918170;-57
2023/08/24 03:10:23;;;;;;;19.10;17.10;;;;;;;;;;771226;181;919541;-65
2023/08/24 03:12:49;;;;;;;22.73;16.52;;;;;;;;;;768225;178;913332;-64
2023/08/24 03:15:15;;;;;;;20.40;17.40;;;;;;;;;;774029;181;918375;-59
2023/08/24 03:17:41;;;;;;;19.23;16.23;;;;;;;;;;760441;182;918938;-58
2023/08/24 03:20:07;;;;;;;23.67;17.40;;;;;;;;;;771836;181;920053;-64
2023/08/24 03:22:33;;;;;;;24.03;17.80;;;;;;;;;;772534;180;919331;-64
2023/08/24 03:24:59;;;;;;;72.03;16.30;;;;;;;;;;772983;181;918997;-64
2023/08/24 03:27:25;;;;;;;15.13;13.63;;;;;;;;;;770957;181;919231;-58
2023/08/24 03:29:50;;;;;;;18.87;15.57;;;;;;;;;;774029;177;911691;-64
2023/08/24 03:32:16;;;;;;;17.17;14.50;;;;;;;;;;779319;178;706600;-57
2023/08/24 03:34:42;;;;;;;14.93;13.40;;;;;;;;;;773754;179;920216;-65
2023/08/24 03:37:08;;;;;;;24.27;13.23;;;;;;;;;;773451;177;920831;-65
2023/08/24 03:39:34;;;;;;;27.20;13.93;;;;;;;;;;780561;181;919012;-59
2023/08/24 03:42:00;;;;;;;86.00;14.18;;;;;;;;;;764631;179;918792;-64
2023/08/24 03:44:25;;;;;;;15.23;13.27;;;;;;;;;;765810;182;919114;-58
2023/08/24 03:46:51;;;;;;;14.70;13.20;;;;;;;;;;771499;181;920014;-59
2023/08/24 03:49:17;;;;;;;14.60;13.05;;;;;;;;;;775955;181;922246;-59
2023/08/24 03:51:43;;;;;;;16.80;15.00;;;;;;;;;;770296;180;920424;-58
2023/08/24 03:54:09;;;;;;;17.02;13.10;;;;;;;;;;771757;178;855049;-64
2023/08/24 03:56:35;;;;;;;110.93;14.90;;;;;;;;;;779520;181;925417;-65
2023/08/24 03:59:01;;;;;;;16.33;11.13;;;;;;;;;;773698;178;920114;-64
2023/08/24 04:01:26;;;;;;;17.80;12.60;;;;;;;;;;773240;180;825228;-58
2023/08/24 04:03:52;;;;;;;15.63;14.03;;;;;;;;;;777956;179;816486;-57
2023/08/24 04:06:19;;;;;;;15.67;13.93;;;;;;;;;;776874;178;919292;-64
2023/08/24 04:08:45;;;;;;;19.60;14.38;;;;;;;;;;756574;183;925890;-58
2023/08/24 04:11:11;;;;;;;13.48;12.07;;;;;;;;;;773746;181;920602;-59
2023/08/24 04:13:37;;;;;;;21.40;12.30;;;;;;;;;;769932;181;918022;-64
2023/08/24 04:16:03;;;;;;;17.87;12.33;;;;;;;;;;766185;181;919686;-65
2023/08/24 04:18:29;;;;;;;13.10;11.70;;;;;;;;;;770099;180;816288;-64
2023/08/24 04:20:55;;;;;;;12.63;11.30;;;;;;;;;;780049;177;814838;-64
2023/08/24 04:23:20;;;;;;;14.10;12.67;;;;;;;;;;774025;177;919655;-65
2023/08/24 04:25:46;;;;;;;19.60;12.10;;;;;;;;;;773281;180;917716;-64
2023/08/24 04:28:12;;;;;;;14.93;13.53;;;;;;;;;;774089;180;919508;-65
2023/08/24 04:30:39;;;;;;;14.07;12.07;;;;;;;;;;774062;178;918665;-58
2023/08/24 04:33:04;;;;;;;13.90;12.43;;;;;;;;;;773844;180;920441;-64
2023/08/24 04:35:30;;;;;;;22.03;12.60;;;;;;;;;;775102;180;922897;-65
2023/08/24 04:37:56;;;;;;;12.82;11.63;;;;;;;;;;772195;179;919059;-58
2023/08/24 04:40:21;;;;;;;13.93;12.43;;;;;;;;;;768170;177;918906;-65
2023/08/24 04:42:47;;;;;;;12.83;11.57;;;;;;;;;;766239;179;918706;-64
2023/08/24 04:45:14;;;;;;;14.10;12.63;;;;;;;;;;779893;178;913806;-64
2023/08/24 04:47:39;;;;;;;14.90;13.30;;;;;;;;;;772976;177;923305;-65
2023/08/24 04:50:05;;;;;;;14.67;13.23;;;;;;;;;;764870;178;915283;-65
2023/08/24 04:52:31;;;;;;;14.50;12.80;;;;;;;;;;778010;180;916630;-64
2023/08/24 04:54:57;;;;;;;20.10;17.97;;;;;;;;;;771700;178;919639;-58
2023/08/24 04:57:24;;;;;;;23.77;16.33;;;;;;;;;;768355;178;922471;-57
2023/08/24 04:59:49;;;;;;;21.57;16.53;;;;;;;;;;779222;179;919007;-65
2023/08/24 05:02:15;;;;;;;26.23;19.37;;;;;;;;;;772123;178;919370;-66
2023/08/24 05:04:41;;;;;;;24.17;20.50;;;;;;;;;;774980;177;918778;-65
2023/08/24 05:07:07;;;;;;;25.67;21.90;;;;;;;;;;773332;180;924490;-65
2023/08/24 05:09:33;;;;;;;24.80;19.40;;;;;;;;;;778184;179;811324;-58
2023/08/24 05:11:59;;;;;;;29.03;21.53;;;;;;;;;;759958;184;919230;-65
2023/08/24 05:14:24;;;;;;;23.30;20.53;;;;;;;;;;761552;180;856840;-58
2023/08/24 05:16:50;;;;;;;21.60;18.97;;;;;;;;;;778059;181;917461;-59
2023/08/24 05:19:16;;;;;;;26.37;20.20;;;;;;;;;;774630;178;917984;-66
2023/08/24 05:21:42;;;;;;;24.20;20.03;;;;;;;;;;768094;180;890779;-65
2023/08/24 05:24:08;;;;;;;29.40;21.20;;;;;;;;;;777082;178;892765;-67
2023/08/24 05:26:34;;;;;;;25.67;20.10;;;;;;;;;;772640;177;931295;-65
2023/08/24 05:29:00;;;;;;;21.57;19.37;;;;;;;;;;770562;178;914533;-65
2023/08/24 05:31:25;;;;;;;25.60;18.47;;;;;;;;;;765537;178;928593;-59
2023/08/24 05:33:51;;;;;;;22.00;18.80;;;;;;;;;;771426;178;903845;-65
2023/08/24 05:36:17;;;;;;;26.70;21.57;;;;;;;;;;761531;181;915662;-59
2023/08/24 05:38:46;;;;;;;23.77;18.75;;;;;;;;;;768829;180;911427;-65
2023/08/24 05:41:09;;;;;;;25.03;18.30;;;;;;;;;;773935;181;916404;-60
2023/08/24 05:43:35;;;;;;;21.60;19.30;;;;;;;;;;762099;180;916365;-65
2023/08/24 05:46:02;;;;;;;24.37;18.73;;;;;;;;;;772438;178;915114;-59
2023/08/24 05:48:26;;;;;;;22.57;19.80;;;;;;;;;;775899;181;838349;-65
2023/08/24 05:50:52;;;;;;;24.83;19.97;;;;;;;;;;772890;180;917637;-65
2023/08/24 05:53:18;;;;;;;20.90;17.20;;;;;;;;;;766877;178;920474;-65
2023/08/24 05:55:44;;;;;;;19.60;17.60;;;;;;;;;;779567;180;918362;-57
2023/08/24 05:58:10;;;;;;;20.57;16.80;;;;;;;;;;772704;179;920609;-60
2023/08/24 06:00:36;;;;;;;31.13;18.47;;;;;;;;;;771611;179;920195;-64
2023/08/24 06:03:02;;;;;;;20.20;16.87;;;;;;;;;;771132;180;919266;-64
2023/08/24 06:05:27;;;;;;;21.40;16.40;;;;;;;;;;782137;180;919151;-65
2023/08/24 06:07:54;;;;;;;19.00;16.17;;;;;;;;;;777050;178;822237;-59
2023/08/24 06:10:19;;;;;;;18.37;14.37;;;;;;;;;;774270;179;930225;-60
2023/08/24 06:12:45;;;;;;;19.77;14.20;;;;;;;;;;779082;180;918506;-65
2023/08/24 06:15:13;;;;;;;19.60;14.47;;;;;;;;;;772853;181;917702;-59
2023/08/24 06:17:37;;;;;;;18.10;15.57;;;;;;;;;;768288;180;906248;-58
2023/08/24 06:20:03;;;;;;;17.40;15.60;;;;;;;;;;773352;181;905188;-59
2023/08/24 06:22:29;;;;;;;16.03;14.43;;;;;;;;;;774864;180;920275;-58
2023/08/24 06:24:59;;;;;;;16.50;14.80;;;;;;;;;;773086;181;919816;-65
2023/08/24 06:27:21;;;;;;;21.20;13.97;;;;;;;;;;770311;179;919921;-59
2023/08/24 06:29:47;;;;;;;17.27;14.60;;;;;;;;;;775745;180;815212;-59
2023/08/24 06:32:13;;;;;;;21.97;15.47;;;;;;;;;;768374;180;916590;-59
2023/08/24 06:34:38;;;;;;;17.77;13.17;;;;;;;;;;769393;178;922388;-59
2023/08/24 06:37:05;;;;;;;16.70;13.77;;;;;;;;;;778595;180;919110;-65
2023/08/24 06:39:30;;;;;;;15.93;14.37;;;;;;;;;;769627;180;918738;-58
2023/08/24 06:41:56;;;;;;;13.97;12.50;;;;;;;;;;773368;177;918524;-60
2023/08/24 06:44:22;;;;;;;18.53;13.83;;;;;;;;;;779878;180;817105;-58
2023/08/24 06:46:48;;;;;;;14.00;12.03;;;;;;;;;;772917;179;919690;-58
2023/08/24 06:49:14;;;;;;;15.23;13.73;;;;;;;;;;770937;180;918612;-65
2023/08/24 06:51:39;;;;;;;20.30;13.37;;;;;;;;;;765392;180;919114;-64
2023/08/24 06:54:05;;;;;;;15.50;14.00;;;;;;;;;;771567;180;917914;-59
2023/08/24 06:56:31;;;;;;;18.67;12.83;;;;;;;;;;765838;181;919290;-66
2023/08/24 06:58:57;;;;;;;12.90;11.43;;;;;;;;;;772161;180;922052;-58
2023/08/24 07:01:23;;;;;;;14.33;12.37;;;;;;;;;;776230;181;924737;-58
2023/08/24 07:03:49;;;;;;;17.07;11.23;;;;;;;;;;771590;181;921807;-64
2023/08/24 07:06:14;;;;;;;14.40;10.07;;;;;;;;;;774938;178;1021286;-58
2023/08/24 07:08:40;;;;;;;12.83;10.40;;;;;;;;;;777965;180;919819;-58
2023/08/24 07:11:06;;;;;;;14.47;9.60;;;;;;;;;;770334;180;844116;-64
2023/08/24 07:13:32;;;;;;;11.03;9.33;;;;;;;;;;776227;180;918182;-58
2023/08/24 07:15:58;;;;;;;13.97;9.77;;;;;;;;;;780767;180;915060;-58
2023/08/24 07:18:24;;;;;;;10.87;8.20;;;;;;;;;;770498;180;916187;-65
2023/08/24 07:20:50;;;;;;;10.57;8.37;;;;;;;;;;777055;177;804526;-66
2023/08/24 07:23:16;;;;;;;10.43;8.80;;;;;;;;;;775526;180;811843;-58
2023/08/24 07:25:41;;;;;;;12.80;8.27;;;;;;;;;;778554;180;915027;-57
2023/08/24 07:28:08;;;;;;;11.73;8.50;;;;;;;;;;775661;177;923372;-65
2023/08/24 07:30:33;;;;;;;12.00;7.97;;;;;;;;;;772773;179;921286;-64
2023/08/24 07:32:59;;;;;;;9.30;8.30;;;;;;;;;;777754;180;919950;-58
2023/08/24 07:35:26;;;;;;;8.60;7.33;;;;;;;;;;758288;181;925898;-58
2023/08/24 07:37:51;;;;;;;8.40;7.50;;;;;;;;;;766188;180;916202;-59
2023/08/24 07:40:16;;;;;;;7.93;7.13;;;;;;;;;;774924;180;876446;-58
2023/08/24 07:42:47;;;;;;;8.47;6.77;;;;;;;;;;773317;178;919232;-67
2023/08/24 07:45:13;;;;;;;19.60;7.30;;;;;;;;;;772039;178;921092;-59
2023/08/24 07:47:39;;;;;;;8.93;6.10;;;;;;;;;;770956;179;918741;-59
2023/08/24 07:50:06;;;;;;;8.23;6.03;;;;;;;;;;776726;180;919386;-58
2023/08/24 07:52:31;;;;;;;7.13;5.83;;;;;;;;;;776543;177;926966;-59
2023/08/24 07:54:59;;;;;;;7.00;4.97;;;;;;;;;;762081;184;919604;-59
2023/08/24 07:57:23;;;;;;;7.30;6.03;;;;;;;;;;771061;181;908920;-59
2023/08/24 07:59:48;;;;;;;7.60;5.50;;;;;;;;;;770008;182;918454;-59
2023/08/24 08:02:15;;;;;;;6.87;5.27;;;;;;;;;;777893;179;816499;-68
2023/08/24 08:04:40;;;;;;;9.10;5.00;;;;;;;;;;773711;181;918643;-65
2023/08/24 08:07:07;;;;;;;9.33;4.90;;;;;;;;;;774424;181;916864;-59
2023/08/24 08:09:33;;;;;;;7.53;4.30;;;;;;;;;;775680;180;817781;-59
2023/08/24 08:11:59;;;;;;;7.03;5.10;;;;;;;;;;774182;179;921004;-67
2023/08/24 08:14:25;;;;;;;9.10;6.20;;;;;;;;;;780195;178;815936;-67
2023/08/24 08:16:50;;;;;;;8.63;5.43;;;;;;;;;;776593;180;1011771;-67
2023/08/24 08:19:18;;;;;;;8.43;6.07;;;;;;;;;;775820;179;917979;-58
2023/08/24 08:21:42;;;;;;;11.07;5.67;;;;;;;;;;779191;179;917726;-66
2023/08/24 08:24:08;;;;;;;9.47;4.90;;;;;;;;;;776911;177;856861;-66
2023/08/24 08:26:35;;;;;;;6.50;5.00;;;;;;;;;;774690;176;919823;-68
2023/08/24 08:29:00;;;;;;;4.57;4.10;;;;;;;;;;780829;180;816281;-67
2023/08/24 08:31:25;;;;;;;6.90;4.77;;;;;;;;;;773635;181;919435;-59
2023/08/24 08:33:51;;;;;;;11.02;4.93;;;;;;;;;;774114;178;922091;-59
2023/08/24 08:36:17;;;;;;;6.03;4.50;;;;;;;;;;774693;180;918893;-58
2023/08/24 08:38:43;;;;;;;9.50;3.90;;;;;;;;;;782294;177;918808;-58
2023/08/24 08:41:09;;;;;;;7.10;4.93;;;;;;;;;;772149;180;918810;-66
2023/08/24 08:43:35;;;;;;;5.67;4.03;;;;;;;;;;771190;180;921274;-67
2023/08/24 08:46:00;;;;;;;8.03;4.50;;;;;;;;;;779218;180;818969;-67
2023/08/24 08:48:26;;;;;;;5.40;4.30;;;;;;;;;;772317;180;862931;-59
2023/08/24 08:50:55;;;;;;;7.87;4.30;;;;;;;;;;772876;181;917193;-67
2023/08/24 08:53:18;;;;;;;5.70;3.93;;;;;;;;;;779179;180;916255;-68
2023/08/24 08:55:44;;;;;;;8.23;4.40;;;;;;;;;;769667;179;920670;-60
2023/08/24 08:58:10;;;;;;;7.82;4.87;;;;;;;;;;762454;181;1017885;-68
2023/08/24 09:00:36;;;;;;;5.80;4.43;;;;;;;;;;772673;180;921428;-68
2023/08/24 09:03:02;;;;;;;6.70;4.20;;;;;;;;;;780519;178;918134;-60
2023/08/24 09:05:27;;;;;;;7.57;4.60;;;;;;;;;;773638;180;900999;-58
2023/08/24 09:07:53;;;;;;;7.37;4.20;;;;;;;;;;771063;180;919945;-69
2023/08/24 09:10:19;;;;;;;10.70;5.00;;;;;;;;;;776184;180;919300;-69
2023/08/24 09:12:45;;;;;;;7.47;3.87;;;;;;;;;;771876;180;923154;-60
2023/08/24 09:15:11;;;;;;;8.70;4.43;;;;;;;;;;759367;179;920661;-60
2023/08/24 09:17:37;;;;;;;8.53;4.40;;;;;;;;;;775463;180;916354;-66
2023/08/24 09:20:02;;;;;;;11.40;4.17;;;;;;;;;;774240;180;905972;-59
2023/08/24 09:22:28;;;;;;;7.20;5.27;;;;;;;;;;771855;177;904057;-60
2023/08/24 09:24:54;;;;;;;7.30;4.50;;;;;;;;;;776591;180;816765;-68
2023/08/24 09:27:20;;;;;;;5.97;4.20;;;;;;;;;;771758;180;919939;-69
2023/08/24 09:29:49;;;;;;;10.97;4.40;;;;;;;;;;770723;180;919475;-60
2023/08/24 09:32:15;;;;;;;7.10;4.77;;;;;;;;;;775446;179;921629;-60
2023/08/24 09:34:40;;;;;;;12.30;4.90;;;;;;;;;;780326;177;881929;-60
2023/08/24 09:37:06;;;;;;;7.70;4.50;;;;;;;;;;773996;177;908983;-69
2023/08/24 09:39:32;;;;;;;10.73;4.50;;;;;;;;;;774265;179;910348;-59
2023/08/24 09:41:58;;;;;;;7.93;4.37;;;;;;;;;;777849;178;918504;-67
2023/08/24 09:44:24;;;;;;;5.47;4.70;;;;;;;;;;773342;180;942402;-68
2023/08/24 09:46:50;;;;;;;6.53;4.27;;;;;;;;;;773886;179;744602;-68
2023/08/24 09:49:16;;;;;;;8.88;4.25;;;;;;;;;;775610;181;920768;-61
2023/08/24 09:51:41;;;;;;;10.30;4.57;;;;;;;;;;767373;181;918685;-59
2023/08/24 09:54:08;;;;;;;8.70;4.30;;;;;;;;;;776273;178;919782;-60
2023/08/24 09:56:34;;;;;;;7.87;4.10;;;;;;;;;;772802;180;919872;-66
2023/08/24 09:58:59;;;;;;;6.70;4.80;;;;;;;;;;773473;180;816581;-69
2023/08/24 10:01:25;;;;;;;10.40;3.93;;;;;;;;;;774022;180;914595;-67
2023/08/24 10:03:52;;;;;;;4.80;3.90;;;;;;;;;;775174;178;917733;-59
2023/08/24 10:06:18;;;;;;;5.97;4.40;;;;;;;;;;779589;180;918025;-68
2023/08/24 10:08:44;;;;;;;7.23;4.67;;;;;;;;;;775678;177;923911;-69
2023/08/24 10:11:10;;;;;;;7.50;4.80;;;;;;;;;;770695;180;640502;-60
2023/08/24 10:13:36;;;;;;;6.50;4.13;;;;;;;;;;775620;179;619021;-68
2023/08/24 10:16:02;;;;;;;6.90;4.33;;;;;;;;;;767841;184;839102;-58
2023/08/24 10:18:28;;;;;;;13.67;5.30;;;;;;;;;;769886;181;918562;-69
2023/08/24 10:20:54;;;;;;;5.37;3.87;;;;;;;;;;778078;177;619419;-68
2023/08/24 10:23:19;;;;;;;8.57;4.00;;;;;;;;;;777835;178;619332;-68
2023/08/24 10:25:45;;;;;;;7.90;4.17;;;;;;;;;;773489;180;916090;-67
2023/08/24 10:28:11;;;;;;;6.27;4.20;;;;;;;;;;775088;180;919948;-60
2023/08/24 10:30:37;;;;;;;9.47;4.20;;;;;;;;;;778521;180;919871;-68
2023/08/24 10:33:03;;;;;;;4.70;4.17;;;;;;;;;;774521;177;912127;-59
2023/08/24 10:35:29;;;;;;;6.90;4.67;;;;;;;;;;775794;180;879276;-59
2023/08/24 10:37:55;;;;;;;7.60;4.27;;;;;;;;;;774224;180;918900;-68
2023/08/24 10:40:27;;;;;;;13.90;4.30;;;;;;;;;;769694;180;817686;-59
2023/08/24 10:42:53;;;;;;;6.60;4.00;;;;;;;;;;772934;179;921387;-60
2023/08/24 10:45:18;;;;;;;6.63;4.17;;;;;;;;;;775663;177;915390;-67
2023/08/24 10:47:45;;;;;;;6.73;4.30;;;;;;;;;;771679;180;918918;-59
2023/08/24 10:50:10;;;;;;;5.23;3.73;;;;;;;;;;772315;180;920597;-67
2023/08/24 10:52:38;;;;;;;5.77;4.07;;;;;;;;;;777487;178;919884;-58
2023/08/24 10:55:02;;;;;;;6.13;4.30;;;;;;;;;;774954;179;942132;-57
2023/08/24 10:57:28;;;;;;;7.73;4.33;;;;;;;;;;772936;180;842850;-64
2023/08/24 10:59:59;;;;;;;6.03;3.77;;;;;;;;;;775086;180;920262;-57
2023/08/24 11:02:24;;;;;;;10.33;4.67;;;;;;;;;;772563;181;917647;-57
2023/08/24 11:04:56;;;;;;;6.10;4.70;;;;;;;;;;779568;178;818331;-57
2023/08/24 11:07:21;;;;;;;4.73;3.80;;;;;;;;;;777635;179;628422;-56
2023/08/24 11:09:48;;;;;;;8.83;4.17;;;;;;;;;;774496;181;911478;-58
2023/08/24 11:12:14;;;;;;;11.63;4.87;;;;;;;;;;774430;177;818313;-58
2023/08/24 11:14:46;;;;;;;6.13;4.10;;;;;;;;;;781562;177;812280;-67
2023/08/24 11:17:18;;;;;;;7.07;3.67;;;;;;;;;;761345;182;919633;-58
2023/08/24 11:19:49;;;;;;;6.17;4.30;;;;;;;;;;772968;180;921319;-57
2023/08/24 11:22:15;;;;;;;8.10;4.00;;;;;;;;;;772137;181;921258;-58
2023/08/24 11:24:41;;;;;;;7.63;4.13;;;;;;;;;;782109;180;819353;-56
2023/08/24 11:27:07;;;;;;;8.17;3.80;;;;;;;;;;771226;181;821357;-65
2023/08/24 11:29:33;;;;;;;6.60;4.18;;;;;;;;;;777282;178;919668;-57
2023/08/24 11:31:59;;;;;;;5.50;3.90;;;;;;;;;;776695;180;923881;-65
2023/08/24 11:34:24;;;;;;;5.73;3.93;;;;;;;;;;771788;178;919835;-64
2023/08/24 11:36:50;;;;;;;8.60;4.60;;;;;;;;;;771950;180;816836;-66
2023/08/24 11:39:17;;;;;;;7.57;4.10;;;;;;;;;;772776;180;919209;-58
2023/08/24 11:41:42;;;;;;;6.43;4.07;;;;;;;;;;769929;178;944353;-64
2023/08/24 11:44:08;;;;;;;7.43;4.40;;;;;;;;;;760854;182;817050;-57
2023/08/24 11:46:34;;;;;;;7.87;4.67;;;;;;;;;;770139;179;918528;-56
2023/08/24 11:48:59;;;;;;;5.50;3.40;;;;;;;;;;781068;181;624705;-58
2023/08/24 11:51:25;;;;;;;7.37;4.70;;;;;;;;;;772928;180;816478;-58
2023/08/24 11:53:51;;;;;;;7.27;4.40;;;;;;;;;;773119;179;918303;-58
2023/08/24 11:56:18;;;;;;;5.83;3.77;;;;;;;;;;779981;180;919915;-65
2023/08/24 11:58:43;;;;;;;8.10;4.00;;;;;;;;;;777259;179;843172;-66
2023/08/24 12:01:08;;;;;;;5.67;4.43;;;;;;;;;;772679;178;919842;-58
2023/08/24 12:03:35;;;;;;;5.30;3.40;;;;;;;;;;781433;179;900448;-64
2023/08/24 12:06:01;;;;;;;6.03;3.50;;;;;;;;;;770364;180;918970;-58
2023/08/24 12:08:27;;;;;;;5.47;4.10;;;;;;;;;;764201;181;921177;-66
2023/08/24 12:10:52;;;;;;;6.23;4.10;;;;;;;;;;773284;177;917200;-65
2023/08/24 12:13:18;;;;;;;6.40;3.80;;;;;;;;;;774092;181;619361;-66
2023/08/24 12:15:45;;;;;;;5.33;3.60;;;;;;;;;;776146;177;643920;-58
2023/08/24 12:18:10;;;;;;;9.00;4.13;;;;;;;;;;775353;180;814244;-67
2023/08/24 12:20:36;;;;;;;5.17;4.00;;;;;;;;;;780231;178;814469;-66
2023/08/24 12:23:02;;;;;;;6.17;4.03;;;;;;;;;;760924;180;919725;-59
2023/08/24 12:25:28;;;;;;;5.37;3.23;;;;;;;;;;777039;177;919445;-58
2023/08/24 12:27:54;;;;;;;6.60;3.57;;;;;;;;;;776558;180;919898;-58
2023/08/24 12:30:19;;;;;;;4.13;3.53;;;;;;;;;;775590;180;896206;-65
2023/08/24 12:32:46;;;;;;;5.20;3.70;;;;;;;;;;773479;177;817456;-57
2023/08/24 12:35:11;;;;;;;6.07;4.00;;;;;;;;;;765339;179;1016816;-58
2023/08/24 12:37:37;;;;;;;7.33;4.27;;;;;;;;;;765923;181;918970;-67
2023/08/24 12:40:05;;;;;;;9.70;4.13;;;;;;;;;;773321;181;918858;-67
2023/08/24 12:42:29;;;;;;;5.90;3.90;;;;;;;;;;775380;180;919075;-59
2023/08/24 12:44:55;;;;;;;7.10;4.13;;;;;;;;;;778605;180;918799;-58
2023/08/24 12:47:20;;;;;;;5.40;3.87;;;;;;;;;;769021;180;917260;-65
2023/08/24 12:49:46;;;;;;;7.90;4.10;;;;;;;;;;773772;181;920999;-58
2023/08/24 12:52:12;;;;;;;7.33;4.10;;;;;;;;;;777180;180;737205;-58
2023/08/24 12:54:38;;;;;;;7.10;4.07;;;;;;;;;;769314;180;918245;-66
2023/08/24 12:57:04;;;;;;;11.53;3.73;;;;;;;;;;761049;181;919929;-67
2023/08/24 12:59:30;;;;;;;5.70;3.70;;;;;;;;;;775468;180;865582;-65
2023/08/24 13:01:56;;;;;;;5.03;3.83;;;;;;;;;;771522;180;939591;-66
2023/08/24 13:04:21;;;;;;;5.20;3.70;;;;;;;;;;763710;181;916482;-57
2023/08/24 13:06:47;;;;;;;6.10;4.10;;;;;;;;;;776033;177;916118;-66
2023/08/24 13:09:13;;;;;;;6.10;4.47;;;;;;;;;;777771;178;913010;-67
2023/08/24 13:11:39;;;;;;;6.27;4.23;;;;;;;;;;771374;180;919696;-66
2023/08/24 13:14:05;;;;;;;9.93;4.50;;;;;;;;;;773005;180;919988;-66
2023/08/24 13:16:31;;;;;;;7.03;4.57;;;;;;;;;;780549;179;916685;-58
2023/08/24 13:18:56;;;;;;;6.47;3.90;;;;;;;;;;775099;177;934483;-58
2023/08/24 13:21:22;;;;;;;4.80;4.20;;;;;;;;;;769606;180;953557;-58
2023/08/24 13:23:48;;;;;;;5.50;4.63;;;;;;;;;;766900;180;860448;-67
2023/08/24 13:26:18;;;;;;;7.43;4.10;;;;;;;;;;772906;181;919712;-58
2023/08/24 13:28:43;;;;;;;5.07;3.40;;;;;;;;;;770463;178;919803;-58
2023/08/24 13:31:09;;;;;;;4.13;3.43;;;;;;;;;;774787;181;817161;-59
2023/08/24 13:33:34;;;;;;;7.30;4.10;;;;;;;;;;780222;180;815134;-57
2023/08/24 13:36:01;;;;;;;4.60;3.40;;;;;;;;;;777624;180;918634;-58
2023/08/24 13:38:26;;;;;;;7.17;4.13;;;;;;;;;;773943;180;814634;-58
2023/08/24 13:40:52;;;;;;;10.70;5.00;;;;;;;;;;779106;180;916391;-58
2023/08/24 13:43:19;;;;;;;7.83;4.40;;;;;;;;;;775751;180;888322;-59
2023/08/24 13:45:44;;;;;;;9.63;4.80;;;;;;;;;;771338;180;812100;-59
2023/08/24 13:48:09;;;;;;;7.90;4.70;;;;;;;;;;776600;181;919952;-66
2023/08/24 13:50:35;;;;;;;8.37;4.97;;;;;;;;;;773887;180;918656;-58
2023/08/24 13:53:01;;;;;;;9.73;4.13;;;;;;;;;;774926;179;830142;-58
2023/08/24 13:55:27;;;;;;;9.87;5.37;;;;;;;;;;771274;177;919168;-66
2023/08/24 13:57:53;;;;;;;10.70;5.13;;;;;;;;;;778477;177;862319;-66
2023/08/24 14:00:19;;;;;;;6.13;4.10;;;;;;;;;;773626;180;911265;-66
2023/08/24 14:02:45;;;;;;;53.20;18.83;;;;;;;;;;773694;177;937434;-59
2023/08/24 14:05:12;;;;;;;4.97;3.80;;;;;;;;;;777966;180;824992;-67
2023/08/24 14:07:36;;;;;;;7.13;3.97;;;;;;;;;;773768;180;941412;-67